• Join FlightAware (Why Join?)
  • Login
  • US Flag 
03:42PM EDT


 

Airport Tracker/Info


-or-


 

Live Flight TrackerFlight Track Log ✈ RPA3228 ✈ 13-Apr-2013 ✈ KHSV - KDCA

Flight Track Log - Related Links

Times and Time Zones

All times are in EDT time to prevent confusion due to time zone crossing. See the RPA3228 flight status page for this flight to view local times or setup timezone preferences in your user account.

Time Position Orientation Groundspeed Altitude Reporting Facility
EDT Latitude Longitude Course Direction KTS MPH feet Rate Location/Type
07:49AM 34.8313 -86.3040 59° Northeast  Level FlightAware Approximate
07:49AM 34.7533 -86.5733 81° East 289 333 9,700  Level Memphis Center
07:50AM 34.8459 -86.1743 83° East  Level FlightAware Approximate
07:50AM 34.7856 -86.4681 70° East 306 352 11,800  Level Memphis Center
07:51AM 34.8557 -86.0435 86° East  Level FlightAware Approximate
07:51AM 34.8217 -86.3528 69° East 334 384 14,200  Level Memphis Center
07:52AM 34.8638 -85.9131 86° East  Level FlightAware Approximate
07:52AM 34.8464 -86.2122 78° East 369 425 16,600  Level Memphis Center
07:53AM 34.8854 -85.7864 85° East  Level FlightAware Approximate
07:53AM 34.8553 -86.1422 81° East 380 437 17,800  Level Atlanta Center
07:54AM 34.8941 -85.6560 85° East  Level FlightAware Approximate
07:54AM 34.8722 -86.0008 82° East 412 474 19,600  Level Atlanta Center
07:55AM 34.9051 -85.5259 81° East  Level FlightAware Approximate
07:55AM 34.8869 -85.8569 83° East 419 482 21,300  Level Atlanta Center
07:56AM 34.8992 -85.7256 83° East 429 494 23,000 1,620 Climbing Atlanta Center
07:57AM 34.9181 -85.5739 81° East 440 506 24,600 1,560 Climbing Atlanta Center
07:58AM 34.9322 -85.4169 84° East 452 520 26,200 1,500 Climbing Atlanta Center
07:59AM 34.9486 -85.2578 83° East 465 535 27,700 1,500 Climbing Atlanta Center
08:00AM 34.9731 -85.0958 80° East 476 548 29,200 1,500 Climbing Atlanta Center
08:01AM 35.0161 -84.9161 74° East 486 559 30,800 1,500 Climbing Atlanta Center
08:02AM 35.0547 -84.7492 74° East 496 571 32,300 1,080 Climbing Atlanta Center
08:03AM 35.0911 -84.5844 75° East 496 571 33,000 300 Climbing Atlanta Center
08:04AM 35.1294 -84.4222 74° East 491 565 33,000  Level Atlanta Center
08:05AM 35.1653 -84.2597 75° East 491 565 33,000  Level Atlanta Center
08:06AM 35.2031 -84.0947 74° East 491 565 33,000  Level Atlanta Center
08:07AM 35.2406 -83.9319 74° East 491 565 33,000  Level Atlanta Center
08:08AM 35.2736 -83.7692 76° East 491 565 33,000  Level Atlanta Center
08:09AM 35.3106 -83.6061 74° East 491 565 33,000  Level Atlanta Center
08:10AM 35.3475 -83.4431 74° East 491 565 33,000  Level Atlanta Center
08:11AM 35.3822 -83.2772 76° East 491 565 33,000  Level Atlanta Center
08:12AM 35.4164 -83.1086 76° East 491 565 33,000  Level Atlanta Center
08:13AM 35.4525 -82.9450 75° East 491 565 33,000  Level Atlanta Center
08:14AM 35.4864 -82.7814 76° East 491 565 33,000  Level Atlanta Center
08:15AM 35.5222 -82.6150 75° East 491 565 33,000  Level Atlanta Center
08:16AM 35.5558 -82.4689 74° East 485 558 33,000  Level Atlanta Center
08:17AM 35.5931 -82.2894 76° East 485 558 33,000  Level Atlanta Center
08:18AM 35.6281 -82.1225 75° East 497 572 33,000  Level Atlanta Center
08:19AM 35.6631 -81.9531 76° East 497 572 33,000  Level Atlanta Center
08:20AM 35.6975 -81.7858 76° East 497 572 33,000  Level Atlanta Center
08:21AM 35.7319 -81.6186 76° East 497 572 33,000  Level Atlanta Center
08:22AM 35.7639 -81.4464 77° East 497 572 33,000  Level Atlanta Center
08:23AM 35.7961 -81.2967 75° East 502 578 33,000  Level Atlanta Center
08:24AM 35.8297 -81.1214 77° East 508 585 33,000  Level Atlanta Center
08:25AM 35.8589 -80.9564 78° East 508 585 33,000  Level Atlanta Center
08:26AM 35.8936 -80.7681 77° East 508 585 33,000  Level Atlanta Center
08:27AM 35.9289 -80.6025 75° East 513 590 33,000  Level Atlanta Center
08:28AM 35.9814 -80.3175 77° East 527 606 33,000  Level Washington Center
08:29AM 36.0150 -80.1503 76° East 515 593 33,000  Level Washington Center
08:30AM 36.0550 -79.9700 75° East 503 579 33,000  Level Washington Center
08:31AM 36.1356 -79.8228 56° Northeast 493 567 33,000  Level Washington Center
08:32AM 36.2069 -79.6928 56° Northeast 498 573 33,000  Level Washington Center
08:33AM 36.2956 -79.5350 55° Northeast 505 581 33,000  Level Washington Center
08:34AM 36.3775 -79.3919 55° Northeast 505 581 33,000  Level Washington Center
08:35AM 36.4483 -79.2611 56° Northeast 505 581 33,000 -1,080 Level Washington Center
08:36AM 36.5406 -79.1053 54° Northeast 505 581 30,900 -2,700 Descending Washington Center
08:37AM 36.6200 -78.9589 56° Northeast 505 581 27,700 -2,880 Descending Washington Center
08:38AM 36.6947 -78.8194 56° Northeast 505 581 25,200 -1,380 Descending Washington Center
08:39AM 36.7669 -78.6878 56° Northeast 483 556 25,000 -120 Descending Washington Center
08:40AM 36.8306 -78.5708 56° Northeast 463 533 25,000  Level Washington Center
08:41AM 36.9111 -78.4286 55° Northeast 458 527 25,000  Level Washington Center
08:42AM 36.9767 -78.3061 56° Northeast 459 528 25,000  Level Washington Center
08:43AM 37.0550 -78.1606 56° Northeast 459 528 25,000  Level Washington Center
08:44AM 37.1178 -78.0428 56° Northeast 459 528 25,000  Level Washington Center
08:45AM 37.2097 -77.9389 42° Northeast 459 528 25,000  Level Washington Center
08:46AM 37.3175 -77.8611 30° Northeast 439 505 25,000  Level Washington Center
08:47AM 37.4211 -77.7858 30° Northeast 439 505 25,000  Level Washington Center
08:48AM 37.5308 -77.7103 29° Northeast 439 505 25,000 -480 Level Washington Center
08:49AM 37.6367 -77.6319 30° Northeast 439 505 24,100 -1,620 Descending Washington Center
08:50AM 37.7400 -77.5561 30° Northeast 433 498 21,800 -2,280 Descending Washington Center
08:51AM 37.8414 -77.4825 30° Northeast 423 487 19,600 -2,220 Descending Washington Center
08:52AM 37.9489 -77.4061 29° Northeast 418 481 17,400 -2,100 Descending Washington Center
08:53AM 38.0331 -77.3475 29° Northeast 404 465 15,400 -2,040 Descending Washington Center
08:54AM 38.1239 -77.2811 30° Northeast 383 441 13,400 -1,980 Descending Washington Center
08:55AM 38.2122 -77.2169 30° Northeast 369 425 11,500 -1,740 Descending Washington Center
08:56AM 38.2903 -77.1550 32° Northeast 349 402 10,000 -1,140 Descending Washington Center
08:57AM 38.3578 -77.1008 32° Northeast 314 361 9,300 -1,020 Descending Washington Center
08:58AM 38.4147 -77.0464 37° Northeast 278 320 8,000 -1,020 Descending Washington Center
08:59AM 38.4694 -77.0050 31° Northeast 250 288 7,300 -840 Descending Washington Center
09:00AM 38.5194 -77.0061 359° North 193 222 6,400 -1,200 Descending Washington Center
09:01AM 38.5653 -77.0094 357° North 177 204 5,000 -1,200 Descending Washington Center
09:02AM 38.6131 -77.0158 354° North 171 197 4,100 -960 Descending Washington Center
09:03AM 38.6500 -77.0167 359° North 168 193 3,300 -660 Descending Potomac TRACON
09:04AM 38.7000 -77.0167 360° North 167 192 2,900 -660 Descending Potomac TRACON
09:05AM 38.7500 -77.0333 345° North 163 188 2,000 -900 Descending Potomac TRACON
09:06AM 38.7833 -77.0167 21° North 144 166 1,200 -720 Descending Potomac TRACON
09:07AM 38.8167 -77.0167 360° North 125 144 700 -540 Descending Potomac TRACON
09:09AM 38.8500 -77.0333 North  Level FlightAware Approximate
09:16AM 38.8519 -77.0377 North  Level Estimated
09:17AM 38.8500 -77.0333 North  Level FlightAware Approximate
09:18AM 38.8519 -77.0377 North  Level Estimated
09:19AM 38.8500 -77.0333 North  Level FlightAware Approximate
09:20AM 38.8519 -77.0377 North  Level Estimated
09:21AM 38.8500 -77.0333 North  Level FlightAware Approximate
09:22AM 38.8519 -77.0377 North  Level Estimated